CheckWX is a tool to help pilots better visualize weather data.  It is not intended as a substitute for an official pre-flight weather briefing.

02:03:59 UTC

SBGL TAF
RIOgaleão – Tom Jobim International Airport
Rio De Janeiro, Brazil
TAF SBGL 182122Z 1900/2006 08005KT 9999 FEW020 TN25/1909Z TX33/1917Z BECMG 1903/1905 31005KT 7000 SCT010 PROB30 1909/1912 BKN010 BECMG 1912/1914 22010KT SCT015 TEMPO 1918/1924 25015G30KT 4000 TSRA BKN015 FEW030CB BECMG 2000/2002 28005KT RMK PHI

Mar-19@
00:00 UTC

Mar-19 @ 00:00 UTC

Mar-19@
03:00 UTC

Mar-19 @ 03:00 UTC

TAF SBGL 182122Z 1900/2006 08005KT 9999 FEW020 TN25/1909Z TX33/1917Z
Wind
  • 080° at 5 KTS
Cloud Levels
  • Few at 2,000' AGL

Mar-19@
03:00 UTC

Mar-19 @ 03:00 UTC

Mar-19@
12:00 UTC

Mar-19 @ 12:00 UTC

BECMG 1903/1905 31005KT 7000 SCT010

Becoming

Becoming Conditions expected by Tue, Mar 19, 2019 @ 05:00 UTC

Wind
  • 310° at 5 KTS
Cloud Levels
  • Scattered at 1,000' AGL

Mar-19@
09:00 UTC

Mar-19 @ 09:00 UTC

Mar-19@
12:00 UTC

Mar-19 @ 12:00 UTC

PROB30 1909/1912 BKN010

Probable - 30% Likelihood

Probable - 30% Likelihood during this time.

Cloud Levels
  • Broken at 1,000' AGL

Mar-19@
12:00 UTC

Mar-19 @ 12:00 UTC

Mar-20@
00:00 UTC

Mar-20 @ 00:00 UTC

BECMG 1912/1914 22010KT SCT015

Becoming

Becoming Conditions expected by Tue, Mar 19, 2019 @ 14:00 UTC

Wind
  • 220° at 10 KTS
Cloud Levels
  • Scattered at 1,500' AGL

Mar-19@
18:00 UTC

Mar-19 @ 18:00 UTC

Mar-20@
00:00 UTC

Mar-20 @ 00:00 UTC

TEMPO 1918/1924 25015G30KT 4000 TSRA BKN015 FEW030CB

Temporary

Temporary Changes expected for less than half the time period

Wind
  • 250° at 15 KTS
  • {Gusting to 30 KTS
Conditions
Thunderstorm, Rain
Cloud Levels
  • Broken at 1,500' AGL
  • Few at 3,000' AGL

Mar-20@
00:00 UTC

Mar-20 @ 00:00 UTC

Mar-20@
06:00 UTC

Mar-20 @ 06:00 UTC

BECMG 2000/2002 28005KT RMK PHI

Becoming

Becoming Conditions expected by Wed, Mar 20, 2019 @ 02:00 UTC

Wind
  • 280° at 5 KTS
Cloud Levels
  • Scattered at 1,500' AGL